sensor_id;sensor_type;location;lat;lon;timestamp;temperature;humidity
35085;SHT85;21267;51.032;6.998;2022-11-15T00:00:55;10.73;92.25
35085;SHT85;21267;51.032;6.998;2022-11-15T00:03:26;10.80;92.06
35085;SHT85;21267;51.032;6.998;2022-11-15T00:05:54;10.84;92.25
35085;SHT85;21267;51.032;6.998;2022-11-15T00:08:21;10.92;91.75
35085;SHT85;21267;51.032;6.998;2022-11-15T00:10:58;10.92;91.58
35085;SHT85;21267;51.032;6.998;2022-11-15T00:13:26;10.97;91.66
35085;SHT85;21267;51.032;6.998;2022-11-15T00:15:57;10.98;91.59
35085;SHT85;21267;51.032;6.998;2022-11-15T00:18:24;11.07;91.59
35085;SHT85;21267;51.032;6.998;2022-11-15T00:20:51;11.06;91.52
35085;SHT85;21267;51.032;6.998;2022-11-15T00:23:17;11.12;91.37
35085;SHT85;21267;51.032;6.998;2022-11-15T00:25:44;11.15;91.28
35085;SHT85;21267;51.032;6.998;2022-11-15T00:28:10;11.21;90.99
35085;SHT85;21267;51.032;6.998;2022-11-15T00:30:37;11.28;91.18
35085;SHT85;21267;51.032;6.998;2022-11-15T00:33:05;11.25;90.94
35085;SHT85;21267;51.032;6.998;2022-11-15T00:35:32;11.24;91.14
35085;SHT85;21267;51.032;6.998;2022-11-15T00:38:02;11.24;91.12
35085;SHT85;21267;51.032;6.998;2022-11-15T00:40:29;11.31;90.83
35085;SHT85;21267;51.032;6.998;2022-11-15T00:42:56;11.29;90.79
35085;SHT85;21267;51.032;6.998;2022-11-15T00:45:23;11.32;90.88
35085;SHT85;21267;51.032;6.998;2022-11-15T00:47:50;11.31;90.87
35085;SHT85;21267;51.032;6.998;2022-11-15T00:50:17;11.31;90.91
35085;SHT85;21267;51.032;6.998;2022-11-15T00:52:43;11.32;91.00
35085;SHT85;21267;51.032;6.998;2022-11-15T00:55:15;11.29;90.93
35085;SHT85;21267;51.032;6.998;2022-11-15T01:01:38;11.34;91.06
35085;SHT85;21267;51.032;6.998;2022-11-15T01:04:05;11.38;90.95
35085;SHT85;21267;51.032;6.998;2022-11-15T01:06:32;11.43;90.95
35085;SHT85;21267;51.032;6.998;2022-11-15T01:08:58;11.41;90.91
35085;SHT85;21267;51.032;6.998;2022-11-15T01:11:25;11.43;91.10
35085;SHT85;21267;51.032;6.998;2022-11-15T01:13:51;11.45;91.01
35085;SHT85;21267;51.032;6.998;2022-11-15T01:16:18;11.50;90.91
35085;SHT85;21267;51.032;6.998;2022-11-15T01:18:45;11.52;90.90
35085;SHT85;21267;51.032;6.998;2022-11-15T01:21:16;11.45;91.07
35085;SHT85;21267;51.032;6.998;2022-11-15T01:23:43;11.48;91.15
35085;SHT85;21267;51.032;6.998;2022-11-15T01:26:12;11.50;90.97
35085;SHT85;21267;51.032;6.998;2022-11-15T01:28:40;11.52;91.05
35085;SHT85;21267;51.032;6.998;2022-11-15T01:31:14;11.52;91.00
35085;SHT85;21267;51.032;6.998;2022-11-15T01:33:42;11.55;91.02
35085;SHT85;21267;51.032;6.998;2022-11-15T01:36:14;11.58;90.84
35085;SHT85;21267;51.032;6.998;2022-11-15T01:38:41;11.56;90.91
35085;SHT85;21267;51.032;6.998;2022-11-15T01:41:19;11.59;90.93
35085;SHT85;21267;51.032;6.998;2022-11-15T01:43:50;11.58;90.96
35085;SHT85;21267;51.032;6.998;2022-11-15T01:48:48;11.65;90.81
35085;SHT85;21267;51.032;6.998;2022-11-15T01:51:17;11.70;90.87
35085;SHT85;21267;51.032;6.998;2022-11-15T01:53:49;11.70;90.81
35085;SHT85;21267;51.032;6.998;2022-11-15T01:56:23;11.75;90.68
35085;SHT85;21267;51.032;6.998;2022-11-15T01:58:52;11.76;90.69
35085;SHT85;21267;51.032;6.998;2022-11-15T02:01:19;11.86;90.34
35085;SHT85;21267;51.032;6.998;2022-11-15T02:03:52;11.91;90.26
35085;SHT85;21267;51.032;6.998;2022-11-15T02:06:21;11.89;90.30
35085;SHT85;21267;51.032;6.998;2022-11-15T02:08:49;11.90;90.38
35085;SHT85;21267;51.032;6.998;2022-11-15T02:11:16;11.94;90.10
35085;SHT85;21267;51.032;6.998;2022-11-15T02:13:43;11.90;90.38
35085;SHT85;21267;51.032;6.998;2022-11-15T02:18:51;11.96;90.26
35085;SHT85;21267;51.032;6.998;2022-11-15T02:21:28;11.97;90.28
35085;SHT85;21267;51.032;6.998;2022-11-15T02:26:51;12.03;90.21
35085;SHT85;21267;51.032;6.998;2022-11-15T02:32:21;11.96;90.57
35085;SHT85;21267;51.032;6.998;2022-11-15T02:35:08;12.00;90.22
35085;SHT85;21267;51.032;6.998;2022-11-15T02:37:52;11.99;90.47
35085;SHT85;21267;51.032;6.998;2022-11-15T02:40:44;12.08;90.11
35085;SHT85;21267;51.032;6.998;2022-11-15T02:43:21;12.04;90.18
35085;SHT85;21267;51.032;6.998;2022-11-15T02:49:32;12.01;90.38
35085;SHT85;21267;51.032;6.998;2022-11-15T02:51:59;12.07;90.34
35085;SHT85;21267;51.032;6.998;2022-11-15T02:54:29;12.06;90.39
35085;SHT85;21267;51.032;6.998;2022-11-15T02:57:00;12.04;90.36
35085;SHT85;21267;51.032;6.998;2022-11-15T03:07:30;12.00;90.62
35085;SHT85;21267;51.032;6.998;2022-11-15T03:10:06;11.99;90.64
35085;SHT85;21267;51.032;6.998;2022-11-15T03:12:43;12.04;90.54
35085;SHT85;21267;51.032;6.998;2022-11-15T03:15:25;12.08;90.55
35085;SHT85;21267;51.032;6.998;2022-11-15T03:18:04;12.06;90.63
35085;SHT85;21267;51.032;6.998;2022-11-15T03:20:31;12.06;90.62
35085;SHT85;21267;51.032;6.998;2022-11-15T03:23:03;12.10;90.53
35085;SHT85;21267;51.032;6.998;2022-11-15T03:25:32;12.06;90.62
35085;SHT85;21267;51.032;6.998;2022-11-15T03:28:03;12.08;90.67
35085;SHT85;21267;51.032;6.998;2022-11-15T03:30:32;12.07;90.61
35085;SHT85;21267;51.032;6.998;2022-11-15T03:33:02;12.07;90.66
35085;SHT85;21267;51.032;6.998;2022-11-15T03:35:39;12.13;90.58
35085;SHT85;21267;51.032;6.998;2022-11-15T03:38:24;12.13;90.45
35085;SHT85;21267;51.032;6.998;2022-11-15T03:41:02;12.13;90.60
35085;SHT85;21267;51.032;6.998;2022-11-15T03:43:39;12.08;90.63
35085;SHT85;21267;51.032;6.998;2022-11-15T03:46:12;12.13;90.53
35085;SHT85;21267;51.032;6.998;2022-11-15T03:48:44;12.08;90.64
35085;SHT85;21267;51.032;6.998;2022-11-15T03:51:13;12.10;90.69
35085;SHT85;21267;51.032;6.998;2022-11-15T03:53:40;12.06;90.78
35085;SHT85;21267;51.032;6.998;2022-11-15T03:56:07;12.06;90.82
35085;SHT85;21267;51.032;6.998;2022-11-15T03:58:33;12.07;90.74
35085;SHT85;21267;51.032;6.998;2022-11-15T04:01:00;12.16;90.63
35085;SHT85;21267;51.032;6.998;2022-11-15T04:03:27;12.20;90.42
35085;SHT85;21267;51.032;6.998;2022-11-15T04:05:54;12.16;90.42
35085;SHT85;21267;51.032;6.998;2022-11-15T04:08:20;12.17;90.41
35085;SHT85;21267;51.032;6.998;2022-11-15T04:10:49;12.21;90.38
35085;SHT85;21267;51.032;6.998;2022-11-15T04:13:15;12.35;89.82
35085;SHT85;21267;51.032;6.998;2022-11-15T04:15:42;12.31;89.85
35085;SHT85;21267;51.032;6.998;2022-11-15T04:18:08;12.35;89.70
35085;SHT85;21267;51.032;6.998;2022-11-15T04:20:35;12.32;89.74
35085;SHT85;21267;51.032;6.998;2022-11-15T04:23:22;12.35;89.78
35085;SHT85;21267;51.032;6.998;2022-11-15T04:26:08;12.41;89.60
35085;SHT85;21267;51.032;6.998;2022-11-15T04:28:36;12.39;89.54
35085;SHT85;21267;51.032;6.998;2022-11-15T04:31:29;12.42;89.51
35085;SHT85;21267;51.032;6.998;2022-11-15T04:33:55;12.42;89.45
35085;SHT85;21267;51.032;6.998;2022-11-15T04:36:22;12.41;89.55
35085;SHT85;21267;51.032;6.998;2022-11-15T04:39:08;12.44;89.52
35085;SHT85;21267;51.032;6.998;2022-11-15T04:41:34;12.41;89.47
35085;SHT85;21267;51.032;6.998;2022-11-15T04:44:01;12.47;89.43
35085;SHT85;21267;51.032;6.998;2022-11-15T04:46:28;12.47;89.32
35085;SHT85;21267;51.032;6.998;2022-11-15T04:48:54;12.44;89.46
35085;SHT85;21267;51.032;6.998;2022-11-15T04:51:24;12.52;89.25
35085;SHT85;21267;51.032;6.998;2022-11-15T04:53:51;12.51;89.24
35085;SHT85;21267;51.032;6.998;2022-11-15T04:56:18;12.52;89.19
35085;SHT85;21267;51.032;6.998;2022-11-15T04:58:45;12.54;89.28
35085;SHT85;21267;51.032;6.998;2022-11-15T05:01:14;12.57;89.23
35085;SHT85;21267;51.032;6.998;2022-11-15T05:03:42;12.58;89.07
35085;SHT85;21267;51.032;6.998;2022-11-15T05:06:27;12.54;89.24
35085;SHT85;21267;51.032;6.998;2022-11-15T05:08:54;12.52;89.46
35085;SHT85;21267;51.032;6.998;2022-11-15T05:11:20;12.52;89.37
35085;SHT85;21267;51.032;6.998;2022-11-15T05:13:47;12.52;89.27
35085;SHT85;21267;51.032;6.998;2022-11-15T05:16:13;12.49;89.45
35085;SHT85;21267;51.032;6.998;2022-11-15T05:18:40;12.48;89.55
35085;SHT85;21267;51.032;6.998;2022-11-15T05:21:12;12.44;89.73
35085;SHT85;21267;51.032;6.998;2022-11-15T05:23:40;12.48;89.66
35085;SHT85;21267;51.032;6.998;2022-11-15T05:26:10;12.44;89.84
35085;SHT85;21267;51.032;6.998;2022-11-15T05:28:37;12.42;89.97
35085;SHT85;21267;51.032;6.998;2022-11-15T05:31:09;12.38;90.01
35085;SHT85;21267;51.032;6.998;2022-11-15T05:33:37;12.42;89.86
35085;SHT85;21267;51.032;6.998;2022-11-15T05:36:37;12.37;90.18
35085;SHT85;21267;51.032;6.998;2022-11-15T05:39:06;12.37;90.10
35085;SHT85;21267;51.032;6.998;2022-11-15T05:41:41;12.35;90.23
35085;SHT85;21267;51.032;6.998;2022-11-15T05:44:12;12.34;90.30
35085;SHT85;21267;51.032;6.998;2022-11-15T05:46:40;12.34;90.20
35085;SHT85;21267;51.032;6.998;2022-11-15T05:49:07;12.31;90.32
35085;SHT85;21267;51.032;6.998;2022-11-15T05:51:35;12.37;90.10
35085;SHT85;21267;51.032;6.998;2022-11-15T05:54:02;12.31;90.17
35085;SHT85;21267;51.032;6.998;2022-11-15T05:56:29;12.28;90.31
35085;SHT85;21267;51.032;6.998;2022-11-15T05:58:57;12.25;90.44
35085;SHT85;21267;51.032;6.998;2022-11-15T06:01:26;12.17;90.69
35085;SHT85;21267;51.032;6.998;2022-11-15T06:03:53;12.11;90.86
35085;SHT85;21267;51.032;6.998;2022-11-15T06:06:19;12.00;91.15
35085;SHT85;21267;51.032;6.998;2022-11-15T06:08:46;11.97;91.39
35085;SHT85;21267;51.032;6.998;2022-11-15T06:11:14;11.89;91.50
35085;SHT85;21267;51.032;6.998;2022-11-15T06:13:41;11.85;91.55
35085;SHT85;21267;51.032;6.998;2022-11-15T06:16:07;11.90;91.25
35085;SHT85;21267;51.032;6.998;2022-11-15T06:18:34;11.89;91.41
35085;SHT85;21267;51.032;6.998;2022-11-15T06:21:01;11.87;91.42
35085;SHT85;21267;51.032;6.998;2022-11-15T06:23:31;11.80;91.47
35085;SHT85;21267;51.032;6.998;2022-11-15T06:25:59;11.69;91.73
35085;SHT85;21267;51.032;6.998;2022-11-15T06:28:33;11.66;91.83
35085;SHT85;21267;51.032;6.998;2022-11-15T06:31:04;11.63;91.79
35085;SHT85;21267;51.032;6.998;2022-11-15T06:33:31;11.55;92.08
35085;SHT85;21267;51.032;6.998;2022-11-15T06:36:02;11.48;92.10
35085;SHT85;21267;51.032;6.998;2022-11-15T06:38:29;11.46;92.19
35085;SHT85;21267;51.032;6.998;2022-11-15T06:41:02;11.43;92.27
35085;SHT85;21267;51.032;6.998;2022-11-15T06:43:28;11.35;92.50
35085;SHT85;21267;51.032;6.998;2022-11-15T06:45:58;11.39;92.24
35085;SHT85;21267;51.032;6.998;2022-11-15T06:48:25;11.42;92.09
35085;SHT85;21267;51.032;6.998;2022-11-15T06:50:56;11.45;91.83
35085;SHT85;21267;51.032;6.998;2022-11-15T06:53:23;11.46;91.76
35085;SHT85;21267;51.032;6.998;2022-11-15T06:55:50;11.41;91.91
35085;SHT85;21267;51.032;6.998;2022-11-15T06:58:21;11.42;91.95
35085;SHT85;21267;51.032;6.998;2022-11-15T07:00:47;11.35;92.13
35085;SHT85;21267;51.032;6.998;2022-11-15T07:03:14;11.31;92.30
35085;SHT85;21267;51.032;6.998;2022-11-15T07:05:41;11.31;92.23
35085;SHT85;21267;51.032;6.998;2022-11-15T07:08:07;11.29;92.32
35085;SHT85;21267;51.032;6.998;2022-11-15T07:10:35;11.28;92.34
35085;SHT85;21267;51.032;6.998;2022-11-15T07:13:01;11.25;92.17
35085;SHT85;21267;51.032;6.998;2022-11-15T07:15:28;11.24;92.18
35085;SHT85;21267;51.032;6.998;2022-11-15T07:17:55;11.24;92.12
35085;SHT85;21267;51.032;6.998;2022-11-15T07:20:21;11.29;92.04
35085;SHT85;21267;51.032;6.998;2022-11-15T07:22:48;11.27;91.77
35085;SHT85;21267;51.032;6.998;2022-11-15T07:25:14;11.27;91.81
35085;SHT85;21267;51.032;6.998;2022-11-15T07:27:41;11.22;91.86
35085;SHT85;21267;51.032;6.998;2022-11-15T07:33:38;11.24;91.72
35085;SHT85;21267;51.032;6.998;2022-11-15T07:36:05;11.29;91.62
35085;SHT85;21267;51.032;6.998;2022-11-15T07:38:33;11.21;91.67
35085;SHT85;21267;51.032;6.998;2022-11-15T07:41:07;11.27;91.51
35085;SHT85;21267;51.032;6.998;2022-11-15T07:43:34;11.34;91.18
35085;SHT85;21267;51.032;6.998;2022-11-15T07:46:08;11.42;90.93
35085;SHT85;21267;51.032;6.998;2022-11-15T07:48:37;11.58;90.56
35085;SHT85;21267;51.032;6.998;2022-11-15T07:51:12;11.89;89.29
35085;SHT85;21267;51.032;6.998;2022-11-15T07:53:40;12.16;88.16
35085;SHT85;21267;51.032;6.998;2022-11-15T07:56:07;12.35;87.40
35085;SHT85;21267;51.032;6.998;2022-11-15T07:58:34;12.32;86.79
35085;SHT85;21267;51.032;6.998;2022-11-15T08:01:05;12.24;86.68
35085;SHT85;21267;51.032;6.998;2022-11-15T08:03:33;12.25;86.45
35085;SHT85;21267;51.032;6.998;2022-11-15T08:06:00;12.28;86.49
35085;SHT85;21267;51.032;6.998;2022-11-15T08:08:27;12.18;86.77
35085;SHT85;21267;51.032;6.998;2022-11-15T08:10:53;12.00;87.12
35085;SHT85;21267;51.032;6.998;2022-11-15T08:13:20;11.96;87.60
35085;SHT85;21267;51.032;6.998;2022-11-15T08:15:47;11.90;87.59
35085;SHT85;21267;51.032;6.998;2022-11-15T08:18:21;11.86;87.55
35085;SHT85;21267;51.032;6.998;2022-11-15T08:20:48;11.91;87.66
35085;SHT85;21267;51.032;6.998;2022-11-15T08:23:15;11.99;87.40
35085;SHT85;21267;51.032;6.998;2022-11-15T08:25:42;11.96;87.30
35085;SHT85;21267;51.032;6.998;2022-11-15T08:28:09;12.00;86.97
35085;SHT85;21267;51.032;6.998;2022-11-15T08:30:38;12.04;86.88
35085;SHT85;21267;51.032;6.998;2022-11-15T08:33:11;12.03;86.75
35085;SHT85;21267;51.032;6.998;2022-11-15T08:35:40;12.06;86.61
35085;SHT85;21267;51.032;6.998;2022-11-15T08:38:06;12.11;86.45
35085;SHT85;21267;51.032;6.998;2022-11-15T08:40:33;12.27;86.13
35085;SHT85;21267;51.032;6.998;2022-11-15T08:42:59;12.28;85.90
35085;SHT85;21267;51.032;6.998;2022-11-15T08:45:30;12.24;85.84
35085;SHT85;21267;51.032;6.998;2022-11-15T08:47:56;12.29;85.61
35085;SHT85;21267;51.032;6.998;2022-11-15T08:50:23;12.54;84.94
35085;SHT85;21267;51.032;6.998;2022-11-15T08:52:51;12.78;84.15
35085;SHT85;21267;51.032;6.998;2022-11-15T08:55:17;13.06;83.46
35085;SHT85;21267;51.032;6.998;2022-11-15T08:57:49;13.19;82.65
35085;SHT85;21267;51.032;6.998;2022-11-15T09:00:16;13.40;82.00
35085;SHT85;21267;51.032;6.998;2022-11-15T09:02:43;13.40;81.16
35085;SHT85;21267;51.032;6.998;2022-11-15T09:05:09;13.37;81.37
35085;SHT85;21267;51.032;6.998;2022-11-15T09:07:36;13.61;80.79
35085;SHT85;21267;51.032;6.998;2022-11-15T09:10:03;13.65;79.93
35085;SHT85;21267;51.032;6.998;2022-11-15T09:12:30;13.74;79.80
35085;SHT85;21267;51.032;6.998;2022-11-15T09:14:57;13.92;79.56
35085;SHT85;21267;51.032;6.998;2022-11-15T09:17:24;14.04;78.94
35085;SHT85;21267;51.032;6.998;2022-11-15T09:19:50;13.81;78.86
35085;SHT85;21267;51.032;6.998;2022-11-15T09:22:17;13.72;78.73
35085;SHT85;21267;51.032;6.998;2022-11-15T09:24:44;13.92;78.07
35085;SHT85;21267;51.032;6.998;2022-11-15T09:27:11;14.08;77.24
35085;SHT85;21267;51.032;6.998;2022-11-15T09:29:38;14.41;75.50
35085;SHT85;21267;51.032;6.998;2022-11-15T09:32:05;14.83;73.90
35085;SHT85;21267;51.032;6.998;2022-11-15T09:34:32;14.81;74.41
35085;SHT85;21267;51.032;6.998;2022-11-15T09:36:58;14.74;73.93
35085;SHT85;21267;51.032;6.998;2022-11-15T09:39:25;14.77;74.03
35085;SHT85;21267;51.032;6.998;2022-11-15T09:42:23;14.84;72.80
35085;SHT85;21267;51.032;6.998;2022-11-15T09:50:40;14.71;73.07
35085;SHT85;21267;51.032;6.998;2022-11-15T09:56:24;15.15;71.37
35085;SHT85;21267;51.032;6.998;2022-11-15T10:04:17;15.02;71.49
35085;SHT85;21267;51.032;6.998;2022-11-15T10:09:37;14.70;71.28
35085;SHT85;21267;51.032;6.998;2022-11-15T10:12:05;15.01;70.14
35085;SHT85;21267;51.032;6.998;2022-11-15T10:14:32;15.29;68.85
35085;SHT85;21267;51.032;6.998;2022-11-15T10:17:19;15.18;68.12
35085;SHT85;21267;51.032;6.998;2022-11-15T10:25:25;15.91;67.06
35085;SHT85;21267;51.032;6.998;2022-11-15T10:28:19;15.94;67.03
35085;SHT85;21267;51.032;6.998;2022-11-15T10:30:52;16.17;65.85
35085;SHT85;21267;51.032;6.998;2022-11-15T10:46:40;16.75;62.48
35085;SHT85;21267;51.032;6.998;2022-11-15T10:49:19;16.51;62.00
35085;SHT85;21267;51.032;6.998;2022-11-15T10:51:53;16.76;61.31
35085;SHT85;21267;51.032;6.998;2022-11-15T10:54:36;16.25;60.96
35085;SHT85;21267;51.032;6.998;2022-11-15T10:57:25;16.56;59.52
35085;SHT85;21267;51.032;6.998;2022-11-15T10:59:56;16.62;59.35
35085;SHT85;21267;51.032;6.998;2022-11-15T11:05:03;16.25;58.77
35085;SHT85;21267;51.032;6.998;2022-11-15T11:07:33;16.56;57.23
35085;SHT85;21267;51.032;6.998;2022-11-15T11:10:17;16.82;56.50
35085;SHT85;21267;51.032;6.998;2022-11-15T11:13:24;16.82;55.95
35085;SHT85;21267;51.032;6.998;2022-11-15T11:18:33;16.68;55.96
35085;SHT85;21267;51.032;6.998;2022-11-15T11:21:09;17.07;54.01
35085;SHT85;21267;51.032;6.998;2022-11-15T11:23:52;17.17;54.27
35085;SHT85;21267;51.032;6.998;2022-11-15T11:26:38;17.13;54.27
35085;SHT85;21267;51.032;6.998;2022-11-15T11:29:14;17.30;54.64
35085;SHT85;21267;51.032;6.998;2022-11-15T11:37:15;16.56;56.06
35085;SHT85;21267;51.032;6.998;2022-11-15T11:40:13;16.52;56.53
35085;SHT85;21267;51.032;6.998;2022-11-15T11:45:31;15.46;58.53
35085;SHT85;21267;51.032;6.998;2022-11-15T11:50:45;15.74;58.22
35085;SHT85;21267;51.032;6.998;2022-11-15T11:54:11;16.41;57.27
35085;SHT85;21267;51.032;6.998;2022-11-15T11:56:29;16.59;56.75
35085;SHT85;21267;51.032;6.998;2022-11-15T11:59:10;16.83;56.27
35085;SHT85;21267;51.032;6.998;2022-11-15T12:01:43;16.59;56.36
35085;SHT85;21267;51.032;6.998;2022-11-15T12:04:38;16.96;56.14
35085;SHT85;21267;51.032;6.998;2022-11-15T12:07:33;16.73;56.52
35085;SHT85;21267;51.032;6.998;2022-11-15T12:12:41;16.93;56.65
35085;SHT85;21267;51.032;6.998;2022-11-15T12:15:23;16.68;56.92
35085;SHT85;21267;51.032;6.998;2022-11-15T12:17:51;17.08;56.25
35085;SHT85;21267;51.032;6.998;2022-11-15T12:20:20;17.62;56.61
35085;SHT85;21267;51.032;6.998;2022-11-15T12:22:55;17.34;56.71
35085;SHT85;21267;51.032;6.998;2022-11-15T12:25:49;17.17;56.58
35085;SHT85;21267;51.032;6.998;2022-11-15T12:31:06;16.96;58.24
35085;SHT85;21267;51.032;6.998;2022-11-15T12:33:39;16.31;59.55
35085;SHT85;21267;51.032;6.998;2022-11-15T12:36:12;16.28;60.19
35085;SHT85;21267;51.032;6.998;2022-11-15T12:41:33;16.45;59.92
35085;SHT85;21267;51.032;6.998;2022-11-15T12:44:02;16.28;60.00
35085;SHT85;21267;51.032;6.998;2022-11-15T12:49:03;15.87;60.61
35085;SHT85;21267;51.032;6.998;2022-11-15T13:18:29;15.09;66.02
35085;SHT85;21267;51.032;6.998;2022-11-15T13:20:57;15.09;66.35
35085;SHT85;21267;51.032;6.998;2022-11-15T13:23:28;15.02;66.77
35085;SHT85;21267;51.032;6.998;2022-11-15T13:28:39;14.91;67.70
35085;SHT85;21267;51.032;6.998;2022-11-15T13:31:24;14.89;68.05
35085;SHT85;21267;51.032;6.998;2022-11-15T13:33:53;14.83;68.31
35085;SHT85;21267;51.032;6.998;2022-11-15T13:36:28;14.88;68.55
35085;SHT85;21267;51.032;6.998;2022-11-15T13:39:04;14.81;68.66
35085;SHT85;21267;51.032;6.998;2022-11-15T13:41:36;14.81;68.87
35085;SHT85;21267;51.032;6.998;2022-11-15T13:44:20;14.78;69.12
35085;SHT85;21267;51.032;6.998;2022-11-15T13:46:47;14.73;69.45
35085;SHT85;21267;51.032;6.998;2022-11-15T13:49:15;14.73;69.69
35085;SHT85;21267;51.032;6.998;2022-11-15T13:56:44;14.64;70.29
35085;SHT85;21267;51.032;6.998;2022-11-15T14:01:48;14.60;70.48
35085;SHT85;21267;51.032;6.998;2022-11-15T14:04:19;14.54;70.44
35085;SHT85;21267;51.032;6.998;2022-11-15T14:06:53;14.60;70.68
35085;SHT85;21267;51.032;6.998;2022-11-15T14:09:38;14.53;70.54
35085;SHT85;21267;51.032;6.998;2022-11-15T14:12:32;14.54;70.71
35085;SHT85;21267;51.032;6.998;2022-11-15T14:15:30;14.52;70.84
35085;SHT85;21267;51.032;6.998;2022-11-15T14:17:48;14.59;70.73
35085;SHT85;21267;51.032;6.998;2022-11-15T14:23:01;14.50;70.95
35085;SHT85;21267;51.032;6.998;2022-11-15T14:25:29;14.46;71.02
35085;SHT85;21267;51.032;6.998;2022-11-15T14:28:29;14.44;71.35
35085;SHT85;21267;51.032;6.998;2022-11-15T14:30:58;14.46;71.18
35085;SHT85;21267;51.032;6.998;2022-11-15T14:33:34;14.41;71.44
35085;SHT85;21267;51.032;6.998;2022-11-15T14:36:17;14.43;71.35
35085;SHT85;21267;51.032;6.998;2022-11-15T14:38:44;14.43;71.36
35085;SHT85;21267;51.032;6.998;2022-11-15T14:41:18;14.37;71.76
35085;SHT85;21267;51.032;6.998;2022-11-15T14:43:46;14.38;71.83
35085;SHT85;21267;51.032;6.998;2022-11-15T14:46:12;14.37;71.98
35085;SHT85;21267;51.032;6.998;2022-11-15T14:48:41;14.43;71.95
35085;SHT85;21267;51.032;6.998;2022-11-15T14:51:16;14.34;72.19
35085;SHT85;21267;51.032;6.998;2022-11-15T14:53:44;14.30;72.42
35085;SHT85;21267;51.032;6.998;2022-11-15T14:56:11;14.33;72.49
35085;SHT85;21267;51.032;6.998;2022-11-15T14:58:38;14.36;72.48
35085;SHT85;21267;51.032;6.998;2022-11-15T15:01:20;14.40;72.63
35085;SHT85;21267;51.032;6.998;2022-11-15T15:03:47;14.30;72.86
35085;SHT85;21267;51.032;6.998;2022-11-15T15:06:14;14.29;72.86
35085;SHT85;21267;51.032;6.998;2022-11-15T15:08:44;14.25;72.89
35085;SHT85;21267;51.032;6.998;2022-11-15T15:11:16;14.25;73.12
35085;SHT85;21267;51.032;6.998;2022-11-15T15:13:45;14.19;73.08
35085;SHT85;21267;51.032;6.998;2022-11-15T15:16:11;14.16;73.29
35085;SHT85;21267;51.032;6.998;2022-11-15T15:18:38;14.12;73.47
35085;SHT85;21267;51.032;6.998;2022-11-15T15:21:23;14.15;73.20
35085;SHT85;21267;51.032;6.998;2022-11-15T15:23:51;14.08;73.47
35085;SHT85;21267;51.032;6.998;2022-11-15T15:26:20;14.10;73.68
35085;SHT85;21267;51.032;6.998;2022-11-15T15:28:47;14.05;73.78
35085;SHT85;21267;51.032;6.998;2022-11-15T15:31:15;14.02;73.86
35085;SHT85;21267;51.032;6.998;2022-11-15T15:33:41;14.04;73.77
35085;SHT85;21267;51.032;6.998;2022-11-15T15:36:11;13.98;74.08
35085;SHT85;21267;51.032;6.998;2022-11-15T15:38:38;13.98;74.10
35085;SHT85;21267;51.032;6.998;2022-11-15T15:41:13;14.01;74.04
35085;SHT85;21267;51.032;6.998;2022-11-15T15:43:40;13.96;74.26
35085;SHT85;21267;51.032;6.998;2022-11-15T15:46:13;13.89;74.50
35085;SHT85;21267;51.032;6.998;2022-11-15T15:48:40;13.96;74.28
35085;SHT85;21267;51.032;6.998;2022-11-15T15:51:07;13.94;74.32
35085;SHT85;21267;51.032;6.998;2022-11-15T15:53:45;13.88;74.55
35085;SHT85;21267;51.032;6.998;2022-11-15T15:56:11;13.94;74.31
35085;SHT85;21267;51.032;6.998;2022-11-15T15:58:38;13.94;74.37
35085;SHT85;21267;51.032;6.998;2022-11-15T16:01:04;13.92;74.51
35085;SHT85;21267;51.032;6.998;2022-11-15T16:03:31;13.91;74.54
35085;SHT85;21267;51.032;6.998;2022-11-15T16:05:58;13.88;74.55
35085;SHT85;21267;51.032;6.998;2022-11-15T16:08:25;13.84;74.92
35085;SHT85;21267;51.032;6.998;2022-11-15T16:11:13;13.82;74.96
35085;SHT85;21267;51.032;6.998;2022-11-15T16:13:39;13.81;75.04
35085;SHT85;21267;51.032;6.998;2022-11-15T16:16:09;13.79;75.09
35085;SHT85;21267;51.032;6.998;2022-11-15T16:18:38;13.85;75.01
35085;SHT85;21267;51.032;6.998;2022-11-15T16:21:05;13.82;75.17
35085;SHT85;21267;51.032;6.998;2022-11-15T16:23:31;13.85;75.16
35085;SHT85;21267;51.032;6.998;2022-11-15T16:25:58;13.84;75.27
35085;SHT85;21267;51.032;6.998;2022-11-15T16:28:29;13.85;75.27
35085;SHT85;21267;51.032;6.998;2022-11-15T16:31:07;13.82;75.53
35085;SHT85;21267;51.032;6.998;2022-11-15T16:33:35;13.82;75.45
35085;SHT85;21267;51.032;6.998;2022-11-15T16:36:04;13.88;75.37
35085;SHT85;21267;51.032;6.998;2022-11-15T16:38:30;13.89;75.46
35085;SHT85;21267;51.032;6.998;2022-11-15T16:40:58;13.86;75.60
35085;SHT85;21267;51.032;6.998;2022-11-15T16:43:24;13.86;75.53
35085;SHT85;21267;51.032;6.998;2022-11-15T16:45:53;13.84;75.61
35085;SHT85;21267;51.032;6.998;2022-11-15T16:48:25;13.85;75.55
35085;SHT85;21267;51.032;6.998;2022-11-15T16:50:58;13.91;75.50
35085;SHT85;21267;51.032;6.998;2022-11-15T16:53:26;13.94;75.43
35085;SHT85;21267;51.032;6.998;2022-11-15T16:55:53;13.96;75.28
35085;SHT85;21267;51.032;6.998;2022-11-15T16:58:20;13.99;75.31
35085;SHT85;21267;51.032;6.998;2022-11-15T17:00:55;13.98;75.16
35085;SHT85;21267;51.032;6.998;2022-11-15T17:03:22;13.99;75.25
35085;SHT85;21267;51.032;6.998;2022-11-15T17:05:50;14.04;74.85
35085;SHT85;21267;51.032;6.998;2022-11-15T17:08:17;14.02;74.98
35085;SHT85;21267;51.032;6.998;2022-11-15T17:10:46;14.06;74.83
35085;SHT85;21267;51.032;6.998;2022-11-15T17:13:13;14.06;74.79
35085;SHT85;21267;51.032;6.998;2022-11-15T17:15:39;14.08;74.90
35085;SHT85;21267;51.032;6.998;2022-11-15T17:18:08;14.05;75.02
35085;SHT85;21267;51.032;6.998;2022-11-15T17:20:35;14.01;75.07
35085;SHT85;21267;51.032;6.998;2022-11-15T17:23:02;14.02;75.05
35085;SHT85;21267;51.032;6.998;2022-11-15T17:25:28;14.04;75.02
35085;SHT85;21267;51.032;6.998;2022-11-15T17:27:55;14.08;74.85
35085;SHT85;21267;51.032;6.998;2022-11-15T17:30:21;14.02;75.12
35085;SHT85;21267;51.032;6.998;2022-11-15T17:32:48;14.01;74.94
35085;SHT85;21267;51.032;6.998;2022-11-15T17:35:15;14.04;74.90
35085;SHT85;21267;51.032;6.998;2022-11-15T17:37:42;13.99;75.18
35085;SHT85;21267;51.032;6.998;2022-11-15T17:40:09;13.95;75.19
35085;SHT85;21267;51.032;6.998;2022-11-15T17:42:35;13.95;75.37
35085;SHT85;21267;51.032;6.998;2022-11-15T17:45:02;13.92;75.60
35085;SHT85;21267;51.032;6.998;2022-11-15T17:47:35;13.91;75.88
35085;SHT85;21267;51.032;6.998;2022-11-15T17:50:02;13.82;76.62
35085;SHT85;21267;51.032;6.998;2022-11-15T17:52:29;13.65;77.49
35085;SHT85;21267;51.032;6.998;2022-11-15T17:54:55;13.58;78.61
35085;SHT85;21267;51.032;6.998;2022-11-15T17:57:23;13.51;78.96
35085;SHT85;21267;51.032;6.998;2022-11-15T17:59:50;13.41;79.75
35085;SHT85;21267;51.032;6.998;2022-11-15T18:02:17;13.30;80.60
35085;SHT85;21267;51.032;6.998;2022-11-15T18:04:44;13.22;81.23